Agua Caliente, Mexico

5:12 AM MST on January 17, 2019 (GMT -0700)
Santiago | | Change Station

Elev 400 ft 23.48 °N, 109.72 °W | Updated 12 minutes ago

Partly Cloudy
Partly Cloudy
52.1 °F
Feels Like 52.1 °F
N
0
Wind Variable Wind from SSW
Gusts 0.0 mph

Today
High -- | Low -- °F
--% Chance of Precip.
Yesterday
High -- | Low -- °F
Precip. -- in
Pressure 30.04 in
Visibility 6.0 miles
Clouds Clear
Dew Point 48 °F
Humidity 86%
Rainfall 0.00 in
Snow Depth Not available.
7:02 AM 5:55 PM
Waxing Gibbous, 82% visible
METAR MMSD 171205Z 28007KT 6SM SKC 17/12 A3007 RMK SLP170 5//// 956 RTS
Pressure 30.04 in
Visibility 6.0 miles
Clouds Clear
Dew Point 48 °F
Humidity 86%
Rainfall 0.00 in
Snow Depth Not available.
7:02 AM 5:55 PM
Waxing Gibbous, 82% visible
METAR MMSD 171205Z 28007KT 6SM SKC 17/12 A3007 RMK SLP170 5//// 956 RTS

Get Severe Weather Alerts

Thanks for signing up!

Be on the lookout for a verification email in your inbox.

You'll start receiving the daily forecast at 6 AM.

×

10-Day Weather Forecast

No radar image for this location.
×

Almanac

Astronomy

Jan. 17, 2019 Rise Set
Actual Time
Civil Twilight
Nautical Twilight
Astronomical Twilight
Moon
Length of Visible Light
Length of Day
Tomorrow will be .
, % of the Moon is Illuminated

Today's Extremes

Country Highs Country Lows

Community

WunderPhotos

Category 6

Welcome to Category 6. This is the collective home for Weather Underground's featured writeups by Dr. Jeff Masters (right), Bob Henson (left), Chris Burt, and other regular contributors.

Nearby

Air Quality

  Air Quality AQ Index Pollutant
Not available.

Snow Depth

Station Depth Elevation

Earthquake Activity

City Distance Mag. Time & Date
Minimum magnitude displayed is 2.5.

Coastal Water Temperatures

Place Temperature

Stations

Nearby Weather Stations

Station Location Temp. Windchill Dew Point Humidity Wind Precip. Elev Updated Type